sensor_id;sensor_type;location;lat;lon;timestamp;P1;durP1;ratioP1;P2;durP2;ratioP2
10947;SDS011;5526;42.070;24.752;2023-09-18T00:00:33;5.05;;;3.85;;
10947;SDS011;5526;42.070;24.752;2023-09-18T00:03:01;4.45;;;3.92;;
10947;SDS011;5526;42.070;24.752;2023-09-18T00:05:28;4.82;;;4.13;;
10947;SDS011;5526;42.070;24.752;2023-09-18T00:07:56;4.47;;;3.75;;
10947;SDS011;5526;42.070;24.752;2023-09-18T00:10:23;5.72;;;4.43;;
10947;SDS011;5526;42.070;24.752;2023-09-18T00:12:52;4.68;;;3.80;;
10947;SDS011;5526;42.070;24.752;2023-09-18T00:15:20;5.10;;;3.75;;
10947;SDS011;5526;42.070;24.752;2023-09-18T00:17:47;4.45;;;4.05;;
10947;SDS011;5526;42.070;24.752;2023-09-18T00:20:15;4.68;;;3.90;;
10947;SDS011;5526;42.070;24.752;2023-09-18T00:22:42;4.72;;;4.30;;
10947;SDS011;5526;42.070;24.752;2023-09-18T00:25:09;5.60;;;4.82;;
10947;SDS011;5526;42.070;24.752;2023-09-18T00:27:37;4.70;;;4.30;;
10947;SDS011;5526;42.070;24.752;2023-09-18T00:30:04;5.60;;;4.57;;
10947;SDS011;5526;42.070;24.752;2023-09-18T00:32:34;6.03;;;4.20;;
10947;SDS011;5526;42.070;24.752;2023-09-18T00:35:01;5.63;;;3.95;;
10947;SDS011;5526;42.070;24.752;2023-09-18T00:37:28;5.88;;;4.47;;
10947;SDS011;5526;42.070;24.752;2023-09-18T00:39:55;4.65;;;4.35;;
10947;SDS011;5526;42.070;24.752;2023-09-18T00:42:22;4.85;;;4.30;;
10947;SDS011;5526;42.070;24.752;2023-09-18T00:44:49;4.68;;;4.28;;
10947;SDS011;5526;42.070;24.752;2023-09-18T00:47:16;4.63;;;3.85;;
10947;SDS011;5526;42.070;24.752;2023-09-18T00:49:45;4.72;;;4.30;;
10947;SDS011;5526;42.070;24.752;2023-09-18T00:52:15;7.88;;;4.43;;
10947;SDS011;5526;42.070;24.752;2023-09-18T00:54:44;4.70;;;4.30;;
10947;SDS011;5526;42.070;24.752;2023-09-18T00:57:12;5.68;;;4.03;;
10947;SDS011;5526;42.070;24.752;2023-09-18T00:59:39;6.65;;;4.30;;
10947;SDS011;5526;42.070;24.752;2023-09-18T01:02:07;7.18;;;4.10;;
10947;SDS011;5526;42.070;24.752;2023-09-18T01:04:34;4.95;;;4.32;;
10947;SDS011;5526;42.070;24.752;2023-09-18T01:07:03;5.78;;;4.25;;
10947;SDS011;5526;42.070;24.752;2023-09-18T01:09:30;4.50;;;4.00;;
10947;SDS011;5526;42.070;24.752;2023-09-18T01:12:01;7.05;;;4.60;;
10947;SDS011;5526;42.070;24.752;2023-09-18T01:14:35;5.18;;;4.18;;
10947;SDS011;5526;42.070;24.752;2023-09-18T01:17:06;9.00;;;4.65;;
10947;SDS011;5526;42.070;24.752;2023-09-18T01:19:37;4.93;;;4.40;;
10947;SDS011;5526;42.070;24.752;2023-09-18T01:22:07;5.50;;;4.18;;
10947;SDS011;5526;42.070;24.752;2023-09-18T01:24:36;5.07;;;4.20;;
10947;SDS011;5526;42.070;24.752;2023-09-18T01:27:07;5.97;;;4.07;;
10947;SDS011;5526;42.070;24.752;2023-09-18T01:29:35;4.65;;;4.18;;
10947;SDS011;5526;42.070;24.752;2023-09-18T01:32:02;5.30;;;4.50;;
10947;SDS011;5526;42.070;24.752;2023-09-18T01:34:31;5.03;;;4.30;;
10947;SDS011;5526;42.070;24.752;2023-09-18T01:37:01;5.88;;;4.50;;
10947;SDS011;5526;42.070;24.752;2023-09-18T01:39:30;7.35;;;4.18;;
10947;SDS011;5526;42.070;24.752;2023-09-18T01:41:59;4.93;;;4.13;;
10947;SDS011;5526;42.070;24.752;2023-09-18T01:44:29;6.78;;;4.45;;
10947;SDS011;5526;42.070;24.752;2023-09-18T01:46:57;6.75;;;4.45;;
10947;SDS011;5526;42.070;24.752;2023-09-18T01:49:29;6.60;;;4.43;;
10947;SDS011;5526;42.070;24.752;2023-09-18T01:51:57;4.75;;;4.35;;
10947;SDS011;5526;42.070;24.752;2023-09-18T01:54:24;4.60;;;4.20;;
10947;SDS011;5526;42.070;24.752;2023-09-18T01:56:51;5.57;;;4.53;;
10947;SDS011;5526;42.070;24.752;2023-09-18T01:59:20;4.72;;;4.10;;
10947;SDS011;5526;42.070;24.752;2023-09-18T02:01:48;5.40;;;4.20;;
10947;SDS011;5526;42.070;24.752;2023-09-18T02:04:15;5.85;;;4.65;;
10947;SDS011;5526;42.070;24.752;2023-09-18T02:06:43;4.45;;;4.05;;
10947;SDS011;5526;42.070;24.752;2023-09-18T02:09:10;5.68;;;4.32;;
10947;SDS011;5526;42.070;24.752;2023-09-18T02:11:38;4.97;;;4.40;;
10947;SDS011;5526;42.070;24.752;2023-09-18T02:14:06;4.50;;;4.10;;
10947;SDS011;5526;42.070;24.752;2023-09-18T02:16:36;4.75;;;4.30;;
10947;SDS011;5526;42.070;24.752;2023-09-18T02:19:06;5.28;;;4.38;;
10947;SDS011;5526;42.070;24.752;2023-09-18T02:21:34;6.07;;;4.30;;
10947;SDS011;5526;42.070;24.752;2023-09-18T02:24:01;5.38;;;4.45;;
10947;SDS011;5526;42.070;24.752;2023-09-18T02:26:29;5.22;;;4.68;;
10947;SDS011;5526;42.070;24.752;2023-09-18T02:28:57;4.63;;;4.30;;
10947;SDS011;5526;42.070;24.752;2023-09-18T02:31:26;5.78;;;4.68;;
10947;SDS011;5526;42.070;24.752;2023-09-18T02:33:55;6.28;;;4.22;;
10947;SDS011;5526;42.070;24.752;2023-09-18T02:36:22;4.93;;;4.07;;
10947;SDS011;5526;42.070;24.752;2023-09-18T02:38:49;5.68;;;4.50;;
10947;SDS011;5526;42.070;24.752;2023-09-18T02:41:16;5.47;;;4.53;;
10947;SDS011;5526;42.070;24.752;2023-09-18T02:43:43;7.07;;;4.65;;
10947;SDS011;5526;42.070;24.752;2023-09-18T02:46:10;4.60;;;4.25;;
10947;SDS011;5526;42.070;24.752;2023-09-18T02:48:37;5.35;;;4.18;;
10947;SDS011;5526;42.070;24.752;2023-09-18T02:51:05;6.03;;;4.65;;
10947;SDS011;5526;42.070;24.752;2023-09-18T02:53:33;5.38;;;4.20;;
10947;SDS011;5526;42.070;24.752;2023-09-18T02:56:00;4.68;;;4.25;;
10947;SDS011;5526;42.070;24.752;2023-09-18T02:58:27;4.57;;;4.15;;
10947;SDS011;5526;42.070;24.752;2023-09-18T03:00:56;5.53;;;4.40;;
10947;SDS011;5526;42.070;24.752;2023-09-18T03:03:24;4.68;;;4.28;;
10947;SDS011;5526;42.070;24.752;2023-09-18T03:05:52;5.65;;;4.38;;
10947;SDS011;5526;42.070;24.752;2023-09-18T03:08:20;5.85;;;4.40;;
10947;SDS011;5526;42.070;24.752;2023-09-18T03:10:47;5.93;;;4.70;;
10947;SDS011;5526;42.070;24.752;2023-09-18T03:13:15;5.13;;;4.40;;
10947;SDS011;5526;42.070;24.752;2023-09-18T03:15:45;6.05;;;4.63;;
10947;SDS011;5526;42.070;24.752;2023-09-18T03:18:13;5.50;;;4.32;;
10947;SDS011;5526;42.070;24.752;2023-09-18T03:20:40;4.97;;;4.15;;
10947;SDS011;5526;42.070;24.752;2023-09-18T03:23:08;4.85;;;4.45;;
10947;SDS011;5526;42.070;24.752;2023-09-18T03:25:36;6.35;;;4.60;;
10947;SDS011;5526;42.070;24.752;2023-09-18T03:28:04;5.20;;;4.65;;
10947;SDS011;5526;42.070;24.752;2023-09-18T03:30:31;4.97;;;4.57;;
10947;SDS011;5526;42.070;24.752;2023-09-18T03:32:58;5.22;;;4.57;;
10947;SDS011;5526;42.070;24.752;2023-09-18T03:35:27;5.22;;;4.72;;
10947;SDS011;5526;42.070;24.752;2023-09-18T03:37:55;5.50;;;4.80;;
10947;SDS011;5526;42.070;24.752;2023-09-18T03:40:22;6.32;;;4.72;;
10947;SDS011;5526;42.070;24.752;2023-09-18T03:42:51;4.85;;;4.35;;
10947;SDS011;5526;42.070;24.752;2023-09-18T03:45:18;5.97;;;4.82;;
10947;SDS011;5526;42.070;24.752;2023-09-18T03:47:45;5.40;;;4.55;;
10947;SDS011;5526;42.070;24.752;2023-09-18T03:50:13;4.72;;;4.28;;
10947;SDS011;5526;42.070;24.752;2023-09-18T03:52:40;4.70;;;4.32;;
10947;SDS011;5526;42.070;24.752;2023-09-18T03:55:07;4.65;;;4.10;;
10947;SDS011;5526;42.070;24.752;2023-09-18T03:57:34;5.70;;;4.55;;
10947;SDS011;5526;42.070;24.752;2023-09-18T04:00:05;5.15;;;4.65;;
10947;SDS011;5526;42.070;24.752;2023-09-18T04:02:33;6.32;;;4.93;;
10947;SDS011;5526;42.070;24.752;2023-09-18T04:05:00;5.00;;;4.50;;
10947;SDS011;5526;42.070;24.752;2023-09-18T04:07:28;6.38;;;4.97;;
10947;SDS011;5526;42.070;24.752;2023-09-18T04:09:56;6.68;;;4.47;;
10947;SDS011;5526;42.070;24.752;2023-09-18T04:12:23;5.18;;;4.68;;
10947;SDS011;5526;42.070;24.752;2023-09-18T04:14:50;5.65;;;4.72;;
10947;SDS011;5526;42.070;24.752;2023-09-18T04:17:19;7.25;;;4.95;;
10947;SDS011;5526;42.070;24.752;2023-09-18T04:19:46;7.93;;;4.85;;
10947;SDS011;5526;42.070;24.752;2023-09-18T04:22:13;4.68;;;4.28;;
10947;SDS011;5526;42.070;24.752;2023-09-18T04:24:40;5.32;;;4.68;;
10947;SDS011;5526;42.070;24.752;2023-09-18T04:27:07;5.55;;;4.88;;
10947;SDS011;5526;42.070;24.752;2023-09-18T04:29:34;5.28;;;4.80;;
10947;SDS011;5526;42.070;24.752;2023-09-18T04:32:03;5.53;;;5.00;;
10947;SDS011;5526;42.070;24.752;2023-09-18T04:34:32;4.57;;;4.18;;
10947;SDS011;5526;42.070;24.752;2023-09-18T04:37:00;5.80;;;4.40;;
10947;SDS011;5526;42.070;24.752;2023-09-18T04:39:28;6.75;;;4.60;;
10947;SDS011;5526;42.070;24.752;2023-09-18T04:42:00;4.88;;;4.47;;
10947;SDS011;5526;42.070;24.752;2023-09-18T04:44:30;6.57;;;4.40;;
10947;SDS011;5526;42.070;24.752;2023-09-18T04:46:57;6.53;;;5.10;;
10947;SDS011;5526;42.070;24.752;2023-09-18T04:49:24;6.55;;;4.80;;
10947;SDS011;5526;42.070;24.752;2023-09-18T04:51:54;5.35;;;4.85;;
10947;SDS011;5526;42.070;24.752;2023-09-18T04:54:22;6.15;;;4.63;;
10947;SDS011;5526;42.070;24.752;2023-09-18T04:56:49;8.38;;;5.25;;
10947;SDS011;5526;42.070;24.752;2023-09-18T04:59:16;4.90;;;4.50;;
10947;SDS011;5526;42.070;24.752;2023-09-18T05:01:43;5.82;;;5.05;;
10947;SDS011;5526;42.070;24.752;2023-09-18T05:04:10;7.03;;;4.68;;
10947;SDS011;5526;42.070;24.752;2023-09-18T05:06:38;6.70;;;4.45;;
10947;SDS011;5526;42.070;24.752;2023-09-18T05:09:08;6.65;;;5.00;;
10947;SDS011;5526;42.070;24.752;2023-09-18T05:11:35;4.80;;;4.30;;
10947;SDS011;5526;42.070;24.752;2023-09-18T05:14:02;9.60;;;4.63;;
10947;SDS011;5526;42.070;24.752;2023-09-18T05:16:29;6.03;;;4.72;;
10947;SDS011;5526;42.070;24.752;2023-09-18T05:18:56;8.32;;;4.40;;
10947;SDS011;5526;42.070;24.752;2023-09-18T05:21:24;6.80;;;4.28;;
10947;SDS011;5526;42.070;24.752;2023-09-18T05:23:52;6.32;;;4.65;;
10947;SDS011;5526;42.070;24.752;2023-09-18T05:26:21;7.35;;;4.80;;
10947;SDS011;5526;42.070;24.752;2023-09-18T05:28:49;6.53;;;4.38;;
10947;SDS011;5526;42.070;24.752;2023-09-18T05:31:19;6.40;;;4.20;;
10947;SDS011;5526;42.070;24.752;2023-09-18T05:33:46;8.25;;;4.00;;
10947;SDS011;5526;42.070;24.752;2023-09-18T05:36:13;7.25;;;3.83;;
10947;SDS011;5526;42.070;24.752;2023-09-18T05:38:40;5.47;;;3.90;;
10947;SDS011;5526;42.070;24.752;2023-09-18T05:41:08;8.38;;;4.07;;
10947;SDS011;5526;42.070;24.752;2023-09-18T05:43:37;6.32;;;3.60;;
10947;SDS011;5526;42.070;24.752;2023-09-18T05:46:04;9.02;;;3.78;;
10947;SDS011;5526;42.070;24.752;2023-09-18T05:48:31;8.60;;;4.93;;
10947;SDS011;5526;42.070;24.752;2023-09-18T05:50:59;5.13;;;3.60;;
10947;SDS011;5526;42.070;24.752;2023-09-18T05:53:26;3.40;;;3.10;;
10947;SDS011;5526;42.070;24.752;2023-09-18T05:55:53;4.45;;;3.20;;
10947;SDS011;5526;42.070;24.752;2023-09-18T05:58:22;5.80;;;3.00;;
10947;SDS011;5526;42.070;24.752;2023-09-18T06:00:52;3.42;;;3.13;;
10947;SDS011;5526;42.070;24.752;2023-09-18T06:03:19;5.40;;;3.38;;
10947;SDS011;5526;42.070;24.752;2023-09-18T06:05:47;5.07;;;3.47;;
10947;SDS011;5526;42.070;24.752;2023-09-18T06:08:14;3.95;;;2.80;;
10947;SDS011;5526;42.070;24.752;2023-09-18T06:10:41;4.32;;;3.15;;
10947;SDS011;5526;42.070;24.752;2023-09-18T06:13:08;3.67;;;2.88;;
10947;SDS011;5526;42.070;24.752;2023-09-18T06:15:36;4.80;;;3.45;;
10947;SDS011;5526;42.070;24.752;2023-09-18T06:18:04;5.72;;;3.75;;
10947;SDS011;5526;42.070;24.752;2023-09-18T06:20:32;5.82;;;4.20;;
10947;SDS011;5526;42.070;24.752;2023-09-18T06:22:59;5.95;;;4.50;;
10947;SDS011;5526;42.070;24.752;2023-09-18T06:25:29;6.22;;;4.63;;
10947;SDS011;5526;42.070;24.752;2023-09-18T06:27:56;7.28;;;4.43;;
10947;SDS011;5526;42.070;24.752;2023-09-18T06:30:23;8.27;;;5.10;;
10947;SDS011;5526;42.070;24.752;2023-09-18T06:32:50;6.53;;;5.50;;
10947;SDS011;5526;42.070;24.752;2023-09-18T06:35:19;5.30;;;4.40;;
10947;SDS011;5526;42.070;24.752;2023-09-18T06:37:46;5.60;;;5.10;;
10947;SDS011;5526;42.070;24.752;2023-09-18T06:40:14;7.28;;;5.43;;
10947;SDS011;5526;42.070;24.752;2023-09-18T06:42:41;8.48;;;4.32;;
10947;SDS011;5526;42.070;24.752;2023-09-18T06:45:09;4.90;;;3.65;;
10947;SDS011;5526;42.070;24.752;2023-09-18T06:47:36;5.43;;;3.35;;
10947;SDS011;5526;42.070;24.752;2023-09-18T06:50:06;5.18;;;3.60;;
10947;SDS011;5526;42.070;24.752;2023-09-18T06:52:36;4.75;;;3.20;;
10947;SDS011;5526;42.070;24.752;2023-09-18T06:55:03;3.70;;;3.35;;
10947;SDS011;5526;42.070;24.752;2023-09-18T06:57:31;4.95;;;4.25;;
10947;SDS011;5526;42.070;24.752;2023-09-18T06:59:58;3.78;;;3.13;;
10947;SDS011;5526;42.070;24.752;2023-09-18T07:02:25;4.72;;;3.40;;
10947;SDS011;5526;42.070;24.752;2023-09-18T07:04:52;4.57;;;3.30;;
10947;SDS011;5526;42.070;24.752;2023-09-18T07:07:19;3.60;;;3.03;;
10947;SDS011;5526;42.070;24.752;2023-09-18T07:09:51;4.18;;;2.90;;
10947;SDS011;5526;42.070;24.752;2023-09-18T07:12:19;4.82;;;2.90;;
10947;SDS011;5526;42.070;24.752;2023-09-18T07:14:46;4.30;;;2.97;;
10947;SDS011;5526;42.070;24.752;2023-09-18T07:17:13;2.70;;;2.50;;
10947;SDS011;5526;42.070;24.752;2023-09-18T07:19:40;3.33;;;2.97;;
10947;SDS011;5526;42.070;24.752;2023-09-18T07:22:07;4.68;;;2.72;;
10947;SDS011;5526;42.070;24.752;2023-09-18T07:24:34;4.32;;;3.10;;
10947;SDS011;5526;42.070;24.752;2023-09-18T07:27:07;4.38;;;2.85;;
10947;SDS011;5526;42.070;24.752;2023-09-18T07:29:34;3.33;;;3.00;;
10947;SDS011;5526;42.070;24.752;2023-09-18T07:32:01;5.38;;;3.15;;
10947;SDS011;5526;42.070;24.752;2023-09-18T07:34:29;3.65;;;2.90;;
10947;SDS011;5526;42.070;24.752;2023-09-18T07:36:56;3.42;;;3.13;;
10947;SDS011;5526;42.070;24.752;2023-09-18T07:39:23;4.32;;;3.25;;
10947;SDS011;5526;42.070;24.752;2023-09-18T07:41:50;3.58;;;3.28;;
10947;SDS011;5526;42.070;24.752;2023-09-18T07:44:20;4.00;;;2.63;;
10947;SDS011;5526;42.070;24.752;2023-09-18T07:46:48;4.65;;;2.55;;
10947;SDS011;5526;42.070;24.752;2023-09-18T07:49:15;3.50;;;3.03;;
10947;SDS011;5526;42.070;24.752;2023-09-18T07:51:43;3.85;;;2.90;;
10947;SDS011;5526;42.070;24.752;2023-09-18T07:54:13;4.30;;;2.95;;
10947;SDS011;5526;42.070;24.752;2023-09-18T07:56:40;2.95;;;2.65;;
10947;SDS011;5526;42.070;24.752;2023-09-18T07:59:08;3.17;;;2.88;;
10947;SDS011;5526;42.070;24.752;2023-09-18T08:01:37;3.17;;;2.92;;
10947;SDS011;5526;42.070;24.752;2023-09-18T08:04:04;3.35;;;2.92;;
10947;SDS011;5526;42.070;24.752;2023-09-18T08:06:31;4.22;;;3.25;;
10947;SDS011;5526;42.070;24.752;2023-09-18T08:08:59;3.30;;;2.53;;
10947;SDS011;5526;42.070;24.752;2023-09-18T08:11:26;6.53;;;2.67;;
10947;SDS011;5526;42.070;24.752;2023-09-18T08:13:54;2.85;;;2.65;;
10947;SDS011;5526;42.070;24.752;2023-09-18T08:16:21;2.58;;;2.40;;
10947;SDS011;5526;42.070;24.752;2023-09-18T08:18:49;4.50;;;3.10;;
10947;SDS011;5526;42.070;24.752;2023-09-18T08:21:18;3.33;;;2.67;;
10947;SDS011;5526;42.070;24.752;2023-09-18T08:23:45;2.72;;;2.53;;
10947;SDS011;5526;42.070;24.752;2023-09-18T08:26:12;4.20;;;2.47;;
10947;SDS011;5526;42.070;24.752;2023-09-18T08:28:39;4.40;;;2.83;;
10947;SDS011;5526;42.070;24.752;2023-09-18T08:31:08;5.43;;;2.80;;
10947;SDS011;5526;42.070;24.752;2023-09-18T08:33:36;4.20;;;2.70;;
10947;SDS011;5526;42.070;24.752;2023-09-18T08:36:05;4.20;;;3.17;;
10947;SDS011;5526;42.070;24.752;2023-09-18T08:38:32;4.25;;;2.80;;
10947;SDS011;5526;42.070;24.752;2023-09-18T08:40:59;3.10;;;2.90;;
10947;SDS011;5526;42.070;24.752;2023-09-18T08:43:28;3.33;;;2.83;;
10947;SDS011;5526;42.070;24.752;2023-09-18T08:46:00;4.30;;;2.72;;
10947;SDS011;5526;42.070;24.752;2023-09-18T08:48:28;3.58;;;2.90;;
10947;SDS011;5526;42.070;24.752;2023-09-18T08:51:00;3.28;;;2.78;;
10947;SDS011;5526;42.070;24.752;2023-09-18T08:53:31;2.83;;;2.40;;
10947;SDS011;5526;42.070;24.752;2023-09-18T08:55:59;3.05;;;2.75;;
10947;SDS011;5526;42.070;24.752;2023-09-18T08:58:27;6.00;;;3.17;;
10947;SDS011;5526;42.070;24.752;2023-09-18T09:00:59;3.35;;;2.95;;
10947;SDS011;5526;42.070;24.752;2023-09-18T09:03:29;3.63;;;2.80;;
10947;SDS011;5526;42.070;24.752;2023-09-18T09:05:56;2.95;;;2.60;;
10947;SDS011;5526;42.070;24.752;2023-09-18T09:08:26;3.50;;;2.85;;
10947;SDS011;5526;42.070;24.752;2023-09-18T09:10:55;4.57;;;2.80;;
10947;SDS011;5526;42.070;24.752;2023-09-18T09:13:23;3.30;;;2.60;;
10947;SDS011;5526;42.070;24.752;2023-09-18T09:15:51;4.20;;;2.90;;
10947;SDS011;5526;42.070;24.752;2023-09-18T09:18:21;4.70;;;2.60;;
10947;SDS011;5526;42.070;24.752;2023-09-18T09:20:52;4.00;;;2.95;;
10947;SDS011;5526;42.070;24.752;2023-09-18T09:23:23;3.45;;;2.90;;
10947;SDS011;5526;42.070;24.752;2023-09-18T09:25:51;2.92;;;2.72;;
10947;SDS011;5526;42.070;24.752;2023-09-18T09:28:29;3.47;;;2.55;;
10947;SDS011;5526;42.070;24.752;2023-09-18T09:30:59;2.60;;;2.40;;
10947;SDS011;5526;42.070;24.752;2023-09-18T09:33:28;2.88;;;2.47;;
10947;SDS011;5526;42.070;24.752;2023-09-18T09:35:55;2.55;;;2.35;;
10947;SDS011;5526;42.070;24.752;2023-09-18T09:38:28;2.72;;;2.53;;
10947;SDS011;5526;42.070;24.752;2023-09-18T09:40:57;3.00;;;2.20;;
10947;SDS011;5526;42.070;24.752;2023-09-18T09:43:25;3.50;;;2.50;;
10947;SDS011;5526;42.070;24.752;2023-09-18T09:45:58;3.53;;;2.70;;
10947;SDS011;5526;42.070;24.752;2023-09-18T09:48:25;4.45;;;2.67;;
10947;SDS011;5526;42.070;24.752;2023-09-18T09:50:57;3.30;;;3.10;;
10947;SDS011;5526;42.070;24.752;2023-09-18T09:53:42;4.40;;;2.80;;
10947;SDS011;5526;42.070;24.752;2023-09-18T09:56:09;3.55;;;3.25;;
10947;SDS011;5526;42.070;24.752;2023-09-18T09:58:36;5.05;;;3.55;;
10947;SDS011;5526;42.070;24.752;2023-09-18T10:01:11;4.68;;;3.13;;
10947;SDS011;5526;42.070;24.752;2023-09-18T10:03:43;4.10;;;2.97;;
10947;SDS011;5526;42.070;24.752;2023-09-18T10:06:10;3.30;;;2.97;;
10947;SDS011;5526;42.070;24.752;2023-09-18T10:08:39;3.08;;;2.88;;
10947;SDS011;5526;42.070;24.752;2023-09-18T10:11:07;5.47;;;3.17;;
10947;SDS011;5526;42.070;24.752;2023-09-18T10:13:42;3.33;;;3.03;;
10947;SDS011;5526;42.070;24.752;2023-09-18T10:16:16;3.10;;;2.90;;
10947;SDS011;5526;42.070;24.752;2023-09-18T10:18:49;4.00;;;3.17;;
10947;SDS011;5526;42.070;24.752;2023-09-18T10:21:26;3.83;;;2.60;;
10947;SDS011;5526;42.070;24.752;2023-09-18T10:24:04;2.40;;;2.20;;
10947;SDS011;5526;42.070;24.752;2023-09-18T10:26:42;2.90;;;2.70;;
10947;SDS011;5526;42.070;24.752;2023-09-18T10:29:17;2.85;;;2.63;;
10947;SDS011;5526;42.070;24.752;2023-09-18T10:31:47;2.53;;;2.42;;
10947;SDS011;5526;42.070;24.752;2023-09-18T10:34:17;2.95;;;2.65;;
10947;SDS011;5526;42.070;24.752;2023-09-18T10:36:46;3.65;;;2.40;;
10947;SDS011;5526;42.070;24.752;2023-09-18T10:39:14;2.83;;;2.47;;
10947;SDS011;5526;42.070;24.752;2023-09-18T10:41:46;2.47;;;2.28;;
10947;SDS011;5526;42.070;24.752;2023-09-18T10:44:14;2.78;;;2.45;;
10947;SDS011;5526;42.070;24.752;2023-09-18T10:46:43;2.63;;;2.42;;
10947;SDS011;5526;42.070;24.752;2023-09-18T10:49:12;3.13;;;2.90;;
10947;SDS011;5526;42.070;24.752;2023-09-18T10:51:39;3.20;;;2.60;;
10947;SDS011;5526;42.070;24.752;2023-09-18T10:54:07;2.45;;;2.25;;
10947;SDS011;5526;42.070;24.752;2023-09-18T10:56:34;2.42;;;2.22;;
10947;SDS011;5526;42.070;24.752;2023-09-18T10:59:02;2.95;;;2.60;;
10947;SDS011;5526;42.070;24.752;2023-09-18T11:01:33;3.17;;;2.65;;
10947;SDS011;5526;42.070;24.752;2023-09-18T11:04:02;3.20;;;2.90;;
10947;SDS011;5526;42.070;24.752;2023-09-18T11:09:42;3.78;;;2.90;;
10947;SDS011;5526;42.070;24.752;2023-09-18T11:12:11;3.40;;;3.08;;
10947;SDS011;5526;42.070;24.752;2023-09-18T11:14:41;2.90;;;2.70;;
10947;SDS011;5526;42.070;24.752;2023-09-18T11:17:29;2.80;;;2.60;;
10947;SDS011;5526;42.070;24.752;2023-09-18T11:20:03;2.63;;;2.50;;
10947;SDS011;5526;42.070;24.752;2023-09-18T11:22:34;2.92;;;2.40;;
10947;SDS011;5526;42.070;24.752;2023-09-18T11:28:00;2.78;;;2.40;;
10947;SDS011;5526;42.070;24.752;2023-09-18T11:30:28;3.17;;;2.88;;
10947;SDS011;5526;42.070;24.752;2023-09-18T11:32:56;2.42;;;2.22;;
10947;SDS011;5526;42.070;24.752;2023-09-18T11:35:23;2.70;;;2.47;;
10947;SDS011;5526;42.070;24.752;2023-09-18T11:38:03;3.35;;;2.40;;
10947;SDS011;5526;42.070;24.752;2023-09-18T11:40:34;2.47;;;2.33;;
10947;SDS011;5526;42.070;24.752;2023-09-18T11:43:18;5.50;;;2.55;;
10947;SDS011;5526;42.070;24.752;2023-09-18T11:45:49;3.10;;;2.38;;
10947;SDS011;5526;42.070;24.752;2023-09-18T11:48:17;2.80;;;2.45;;
10947;SDS011;5526;42.070;24.752;2023-09-18T11:50:45;2.80;;;2.60;;
10947;SDS011;5526;42.070;24.752;2023-09-18T11:53:16;2.63;;;2.42;;
10947;SDS011;5526;42.070;24.752;2023-09-18T11:55:46;3.10;;;2.63;;
10947;SDS011;5526;42.070;24.752;2023-09-18T11:58:13;2.42;;;2.22;;
10947;SDS011;5526;42.070;24.752;2023-09-18T12:00:41;2.83;;;2.63;;
10947;SDS011;5526;42.070;24.752;2023-09-18T12:03:18;2.67;;;2.20;;
10947;SDS011;5526;42.070;24.752;2023-09-18T12:05:52;2.92;;;2.72;;
10947;SDS011;5526;42.070;24.752;2023-09-18T12:08:21;2.78;;;2.58;;
10947;SDS011;5526;42.070;24.752;2023-09-18T12:10:53;2.40;;;2.30;;
10947;SDS011;5526;42.070;24.752;2023-09-18T12:13:23;2.50;;;2.30;;
10947;SDS011;5526;42.070;24.752;2023-09-18T12:15:55;2.33;;;2.22;;
10947;SDS011;5526;42.070;24.752;2023-09-18T12:18:24;2.70;;;2.40;;
10947;SDS011;5526;42.070;24.752;2023-09-18T12:20:54;2.53;;;2.33;;
10947;SDS011;5526;42.070;24.752;2023-09-18T12:23:24;2.92;;;2.70;;
10947;SDS011;5526;42.070;24.752;2023-09-18T12:25:58;3.75;;;2.78;;
10947;SDS011;5526;42.070;24.752;2023-09-18T12:28:27;2.90;;;2.70;;
10947;SDS011;5526;42.070;24.752;2023-09-18T12:30:55;2.70;;;2.50;;
10947;SDS011;5526;42.070;24.752;2023-09-18T12:33:24;4.00;;;2.88;;
10947;SDS011;5526;42.070;24.752;2023-09-18T12:35:52;3.08;;;2.58;;
10947;SDS011;5526;42.070;24.752;2023-09-18T12:38:19;2.70;;;2.50;;
10947;SDS011;5526;42.070;24.752;2023-09-18T12:40:52;2.63;;;2.47;;
10947;SDS011;5526;42.070;24.752;2023-09-18T12:43:21;5.90;;;2.80;;
10947;SDS011;5526;42.070;24.752;2023-09-18T12:45:49;3.20;;;2.90;;
10947;SDS011;5526;42.070;24.752;2023-09-18T12:48:17;2.70;;;2.58;;
10947;SDS011;5526;42.070;24.752;2023-09-18T12:50:44;2.65;;;2.45;;
10947;SDS011;5526;42.070;24.752;2023-09-18T12:53:12;2.65;;;2.50;;
10947;SDS011;5526;42.070;24.752;2023-09-18T12:55:42;2.80;;;2.60;;
10947;SDS011;5526;42.070;24.752;2023-09-18T12:58:10;3.25;;;2.40;;
10947;SDS011;5526;42.070;24.752;2023-09-18T13:00:45;2.88;;;2.28;;
10947;SDS011;5526;42.070;24.752;2023-09-18T13:03:14;2.88;;;2.67;;
10947;SDS011;5526;42.070;24.752;2023-09-18T13:05:42;2.90;;;2.65;;
10947;SDS011;5526;42.070;24.752;2023-09-18T13:08:09;2.40;;;2.20;;
10947;SDS011;5526;42.070;24.752;2023-09-18T13:10:41;2.88;;;2.38;;
10947;SDS011;5526;42.070;24.752;2023-09-18T13:13:15;3.10;;;2.40;;
10947;SDS011;5526;42.070;24.752;2023-09-18T13:15:45;2.58;;;2.28;;
10947;SDS011;5526;42.070;24.752;2023-09-18T13:18:13;2.58;;;2.38;;
10947;SDS011;5526;42.070;24.752;2023-09-18T13:20:41;3.05;;;2.28;;
10947;SDS011;5526;42.070;24.752;2023-09-18T13:23:10;2.40;;;2.20;;
10947;SDS011;5526;42.070;24.752;2023-09-18T13:25:38;2.60;;;2.40;;
10947;SDS011;5526;42.070;24.752;2023-09-18T13:28:09;3.53;;;2.22;;
10947;SDS011;5526;42.070;24.752;2023-09-18T13:30:38;3.28;;;2.70;;
10947;SDS011;5526;42.070;24.752;2023-09-18T13:33:09;2.90;;;2.60;;
10947;SDS011;5526;42.070;24.752;2023-09-18T13:35:37;2.53;;;2.33;;
10947;SDS011;5526;42.070;24.752;2023-09-18T13:38:06;2.80;;;2.40;;
10947;SDS011;5526;42.070;24.752;2023-09-18T13:40:34;2.42;;;2.30;;
10947;SDS011;5526;42.070;24.752;2023-09-18T13:43:02;2.40;;;2.20;;
10947;SDS011;5526;42.070;24.752;2023-09-18T13:45:30;2.20;;;2.10;;
10947;SDS011;5526;42.070;24.752;2023-09-18T13:47:57;2.38;;;2.28;;
10947;SDS011;5526;42.070;24.752;2023-09-18T13:50:26;2.50;;;2.40;;
10947;SDS011;5526;42.070;24.752;2023-09-18T13:52:53;2.30;;;2.20;;
10947;SDS011;5526;42.070;24.752;2023-09-18T13:55:21;3.78;;;2.05;;
10947;SDS011;5526;42.070;24.752;2023-09-18T13:57:48;3.22;;;2.30;;
10947;SDS011;5526;42.070;24.752;2023-09-18T14:00:15;2.60;;;1.90;;
10947;SDS011;5526;42.070;24.752;2023-09-18T14:02:43;2.30;;;2.10;;
10947;SDS011;5526;42.070;24.752;2023-09-18T14:05:10;3.28;;;2.03;;
10947;SDS011;5526;42.070;24.752;2023-09-18T14:07:38;2.30;;;2.20;;
10947;SDS011;5526;42.070;24.752;2023-09-18T14:10:07;2.50;;;2.30;;
10947;SDS011;5526;42.070;24.752;2023-09-18T14:12:36;2.40;;;2.20;;
10947;SDS011;5526;42.070;24.752;2023-09-18T14:15:04;2.70;;;2.50;;
10947;SDS011;5526;42.070;24.752;2023-09-18T14:17:32;2.42;;;2.33;;
10947;SDS011;5526;42.070;24.752;2023-09-18T14:19:59;2.40;;;2.30;;
10947;SDS011;5526;42.070;24.752;2023-09-18T14:22:26;6.72;;;3.20;;
10947;SDS011;5526;42.070;24.752;2023-09-18T14:24:55;2.50;;;2.30;;
10947;SDS011;5526;42.070;24.752;2023-09-18T14:27:22;2.42;;;2.30;;
10947;SDS011;5526;42.070;24.752;2023-09-18T14:29:49;2.60;;;2.40;;
10947;SDS011;5526;42.070;24.752;2023-09-18T14:32:16;2.58;;;2.38;;
10947;SDS011;5526;42.070;24.752;2023-09-18T14:34:44;2.30;;;2.17;;
10947;SDS011;5526;42.070;24.752;2023-09-18T14:37:11;2.50;;;2.30;;
10947;SDS011;5526;42.070;24.752;2023-09-18T14:39:39;2.83;;;2.63;;
10947;SDS011;5526;42.070;24.752;2023-09-18T14:42:08;3.90;;;3.15;;
10947;SDS011;5526;42.070;24.752;2023-09-18T14:44:35;2.78;;;2.60;;
10947;SDS011;5526;42.070;24.752;2023-09-18T14:47:05;3.10;;;2.80;;
10947;SDS011;5526;42.070;24.752;2023-09-18T14:49:32;3.50;;;2.50;;
10947;SDS011;5526;42.070;24.752;2023-09-18T14:51:59;2.90;;;2.80;;
10947;SDS011;5526;42.070;24.752;2023-09-18T14:54:26;3.15;;;2.95;;
10947;SDS011;5526;42.070;24.752;2023-09-18T14:56:53;3.30;;;3.00;;
10947;SDS011;5526;42.070;24.752;2023-09-18T14:59:22;3.22;;;2.95;;
10947;SDS011;5526;42.070;24.752;2023-09-18T15:01:49;2.95;;;2.80;;